Alburnett, Iowa
Current Conditions -  °F | °C
As of 12:52 PM on Tuesday 21 Oct 2014 (Local Time) from KCID Reporting Station
Clear Clear  
Wind Chill: 57°   Ceiling: Unl
Heat Index: 57°   Visibility: 10mi
Dew Point: 42°   Wind: 6mph
Humidity: 57%   Direction: 80°E
Pressure: 30.18"   Gusts: NA
Location:  42.15°N, 91.62°W
Report Text: KCID 211752Z 08005KT 10SM CLR 14/06 A3018 RMK AO2 SLP221 T01390056 10139 20028 58005
Loading
Personal Weather Stations






























Interactive Weather Map New forecast layout! Learn more

10-Day Weather Forecast

Advertisements
Track Severe Weather on mobile